Sunday, November 18, 2018, 2:23 PM GMT
Back to Local

CWTY, Trois Rivieres

Location: , , Canada Lat: 46.35
Local Time: 2:23 PM GMT (14:23 GMT) Lon: -72.517
Time Zone: GMT Elev: 19 ft

Show me the last for .
Show Coded

Time T Td Feel RH Dir Speed Gust Alt SLP Vis Weather Sky Remarks
2018-11-18 14:00 16 9 4 72 290° 9 - - 30.40 0 None
2018-11-18 13:00 14 9 2 79 290° 9 - - 30.39 0 None
2018-11-18 12:00 14 10 3 82 300° 8 - - 30.37 0 None
2018-11-18 11:00 14 9 4 79 290° 7 - - 30.35 0 None
2018-11-18 10:00 15 9 7 74 270° 6 - - 30.33 0 None
2018-11-18 09:00 17 13 10 82 290° 5 - - 30.31 0 None
2018-11-18 08:00 18 12 11 77 260° 5 - - 30.30 0 None
2018-11-18 07:00 19 11 12 69 260° 5 - - 30.28 0 None
2018-11-18 06:00 21 13 13 70 280° 7 - - 30.26 0 None
2018-11-18 05:00 21 13 15 71 270° 5 - - 30.24 0 None
2018-11-18 04:00 22 16 17 76 240° 3 - - 30.22 0 None
2018-11-18 03:00 23 15 19 71 260° 3 - - 30.20 0 None
2018-11-18 02:00 25 18 19 74 280° 5 - - 30.18 0 None
2018-11-18 01:00 26 19 21 72 280° 5 - - 30.15 0 None
2018-11-18 00:00 27 19 22 71 280° 5 - - 30.12 0 None
2018-11-17 23:00 29 22 22 72 290° 8 - - 30.08 0 None
2018-11-17 22:00 30 23 24 74 300° 6 - - 30.05 0 None
2018-11-17 21:00 32 24 25 71 300° 7 - - 30.02 0 None
2018-11-17 20:00 34 24 26 65 300° 9 - - 29.99 0 None
2018-11-17 19:00 34 28 28 79 230° 7 - - 29.96 0 None
2018-11-17 18:00 34 28 28 79 240° 6 - - 29.96 0 None
2018-11-17 17:00 31 29 24 90 230° 8 - - 29.95 0 None
2018-11-17 16:00 32 28 23 86 230° 10 - - 29.94 0 None
2018-11-17 15:00 31 26 23 83 230° 8 - - 29.93 0 None

Support USWX by starting your Amazon purchase here.